Time;durP1;ratioP1;P1;durP2;ratioP2;P2;SDS_P1;SDS_P2;PMS_P1;PMS_P2;Temp;Humidity;BMP_temperature;BMP_pressure;BME280_temperature;BME280_humidity;BME280_pressure;Samples;Min_cycle;Max_cycle;Signal;HPM_P1;HPM_P2
2023/06/03 00:02:15;;;;;;;2.25;0.82;;;9.80;97.90;;;;;;2622212;46;20030;31
2023/06/03 00:04:50;;;;;;;2.83;0.80;;;9.80;97.90;;;;;;2603610;54;20892;31
2023/06/03 00:07:28;;;;;;;3.65;1.00;;;9.80;97.80;;;;;;2603769;54;20085;31
2023/06/03 00:10:02;;;;;;;3.97;1.20;;;9.80;98.40;;;;;;2621940;46;20034;31
2023/06/03 00:12:37;;;;;;;3.50;0.90;;;9.70;98.10;;;;;;2621794;46;20026;31
2023/06/03 00:15:13;;;;;;;3.00;0.73;;;9.70;98.10;;;;;;2773644;31;20632;31
2023/06/03 00:17:52;;;;;;;6.45;0.88;;;9.70;99.00;;;;;;2603421;54;20860;31
2023/06/03 00:22:58;;;;;;;2.70;1.10;;;9.60;99.10;;;;;;2603735;54;20034;31
2023/06/03 00:25:34;;;;;;;3.00;1.30;;;9.60;99.30;;;;;;2621812;46;20100;31
2023/06/03 00:28:09;;;;;;;4.15;1.02;;;9.50;99.60;;;;;;2603538;54;20034;31
2023/06/03 00:30:45;;;;;;;1.43;0.80;;;9.50;99.70;;;;;;2621729;46;20038;31
2023/06/03 00:33:24;;;;;;;4.35;0.90;;;9.40;99.90;;;;;;2603669;54;20085;31
2023/06/03 00:35:59;;;;;;;1.98;0.85;;;9.40;99.90;;;;;;2603584;54;20022;31
2023/06/03 00:38:35;;;;;;;3.50;0.90;;;9.40;99.90;;;;;;2603837;54;20030;31
2023/06/03 00:41:11;;;;;;;4.53;1.23;;;9.30;99.90;;;;;;2603615;54;20033;31
2023/06/03 00:43:47;;;;;;;5.57;1.00;;;9.30;99.90;;;;;;2603064;54;20879;31
2023/06/03 00:46:22;;;;;;;2.47;0.90;;;9.20;99.90;;;;;;2603365;54;20033;31
2023/06/03 00:49:00;;;;;;;4.00;0.90;;;9.20;99.90;;;;;;2791772;31;20479;31
2023/06/03 00:51:36;;;;;;;6.20;2.65;;;9.10;99.90;;;;;;2603651;54;20613;31
2023/06/03 00:54:11;;;;;;;2.88;0.85;;;9.10;99.90;;;;;;2603553;54;20619;31
2023/06/03 00:56:46;;;;;;;3.25;1.20;;;9.10;99.90;;;;;;2621915;46;20030;31
2023/06/03 00:59:21;;;;;;;5.00;1.05;;;9.00;99.90;;;;;;2603270;54;21576;31
2023/06/03 01:01:56;;;;;;;7.13;0.90;;;9.00;99.90;;;;;;2603494;54;20023;31
2023/06/03 01:04:37;;;;;;;3.35;1.00;;;8.90;99.90;;;;;;2603294;54;20031;31
2023/06/03 01:07:14;;;;;;;2.78;0.80;;;8.90;99.90;;;;;;2621658;46;20026;31
2023/06/03 01:09:58;;;;;;;3.42;0.95;;;8.80;99.90;;;;;;2603468;54;20050;31
2023/06/03 01:12:36;;;;;;;4.72;0.93;;;8.80;99.90;;;;;;2621820;46;20030;31
2023/06/03 01:15:11;;;;;;;4.70;1.10;;;8.70;99.90;;;;;;2702101;39;20438;31
2023/06/03 01:17:48;;;;;;;3.10;1.00;;;8.70;99.90;;;;;;2603549;54;20027;31
2023/06/03 01:20:26;;;;;;;3.03;0.93;;;8.70;99.90;;;;;;2621974;46;20026;31
2023/06/03 01:23:19;;;;;;;11.30;1.10;;;8.60;99.90;;;;;;2603592;54;20896;31
2023/06/03 01:25:56;;;;;;;3.50;0.93;;;8.60;99.90;;;;;;2622018;46;21649;31
2023/06/03 01:28:33;;;;;;;1.80;0.90;;;8.50;99.90;;;;;;2720157;39;20509;31
2023/06/03 01:31:08;;;;;;;4.35;0.98;;;8.50;99.90;;;;;;2603521;54;21586;31
2023/06/03 01:33:43;;;;;;;2.45;1.17;;;8.40;99.90;;;;;;2621652;46;20884;31
2023/06/03 01:36:21;;;;;;;3.45;0.75;;;8.40;99.90;;;;;;2621688;46;20793;31
2023/06/03 01:38:58;;;;;;;2.05;0.80;;;8.30;99.90;;;;;;2603471;54;20023;31
2023/06/03 01:41:33;;;;;;;6.18;1.25;;;8.30;99.90;;;;;;2603484;54;20054;31
2023/06/03 01:44:08;;;;;;;4.72;1.00;;;8.30;99.90;;;;;;2621124;46;20022;31
2023/06/03 01:46:43;;;;;;;3.47;0.80;;;8.20;99.90;;;;;;2603166;54;20770;31
2023/06/03 01:49:18;;;;;;;4.43;1.58;;;8.20;99.90;;;;;;2603572;54;20042;31
2023/06/03 01:51:53;;;;;;;5.70;1.40;;;8.20;99.90;;;;;;2603146;54;20034;31
2023/06/03 01:54:31;;;;;;;4.10;1.20;;;8.20;99.90;;;;;;2603043;54;21386;31
2023/06/03 01:57:06;;;;;;;6.60;1.00;;;8.10;99.90;;;;;;2603247;54;20026;31
2023/06/03 01:59:41;;;;;;;4.80;0.90;;;8.10;99.90;;;;;;2621773;46;20022;31
2023/06/03 02:02:16;;;;;;;6.05;0.90;;;8.10;99.90;;;;;;2603302;54;20092;31
2023/06/03 02:04:51;;;;;;;3.55;1.13;;;8.10;99.90;;;;;;2603399;54;20884;31
2023/06/03 02:07:30;;;;;;;2.60;1.10;;;8.00;99.90;;;;;;2603173;54;20909;31
2023/06/03 02:10:08;;;;;;;2.42;1.00;;;8.00;99.90;;;;;;2602874;54;20069;31
2023/06/03 02:12:43;;;;;;;3.97;1.08;;;7.90;99.90;;;;;;2603087;54;20029;31
2023/06/03 02:15:20;;;;;;;4.25;1.05;;;7.90;99.90;;;;;;2603016;54;20053;31
2023/06/03 02:17:55;;;;;;;5.22;1.83;;;7.90;99.90;;;;;;2603005;54;20033;31
2023/06/03 02:20:31;;;;;;;4.32;1.00;;;7.90;99.90;;;;;;2602972;54;20026;31
2023/06/03 02:23:07;;;;;;;3.80;0.95;;;7.90;99.90;;;;;;2603267;54;20032;31
2023/06/03 02:25:46;;;;;;;4.00;1.00;;;7.80;99.90;;;;;;2602968;54;20930;31
2023/06/03 02:28:22;;;;;;;2.78;0.98;;;7.80;99.90;;;;;;2720023;39;20437;31
2023/06/03 02:30:58;;;;;;;4.13;1.10;;;7.70;99.90;;;;;;2602923;54;20026;31
2023/06/03 02:33:33;;;;;;;2.55;1.00;;;7.70;99.90;;;;;;2772740;31;20619;31
2023/06/03 02:36:11;;;;;;;4.53;1.50;;;7.70;99.90;;;;;;2603271;54;20034;31
2023/06/03 02:38:47;;;;;;;3.53;1.30;;;7.70;99.90;;;;;;2621603;47;20022;31
2023/06/03 02:41:27;;;;;;;8.75;1.00;;;7.60;99.90;;;;;;2603021;54;21208;31
2023/06/03 02:44:02;;;;;;;4.00;0.95;;;7.60;99.90;;;;;;2603125;54;20805;31
2023/06/03 02:46:38;;;;;;;3.35;0.80;;;7.60;99.90;;;;;;2621540;47;20033;31
2023/06/03 02:49:15;;;;;;;4.23;1.10;;;7.60;99.90;;;;;;2701278;39;20500;31
2023/06/03 02:51:50;;;;;;;2.33;1.00;;;7.50;99.90;;;;;;2603120;54;20030;31
2023/06/03 02:54:26;;;;;;;2.90;1.10;;;7.50;99.90;;;;;;2602937;54;20046;31
2023/06/03 02:57:04;;;;;;;3.78;1.08;;;7.50;99.90;;;;;;2603221;54;20030;31
2023/06/03 02:59:39;;;;;;;6.57;1.50;;;7.50;99.90;;;;;;2602860;54;20903;31
2023/06/03 03:02:15;;;;;;;5.43;1.40;;;7.40;99.90;;;;;;2603017;54;20052;31
2023/06/03 03:04:51;;;;;;;8.60;1.30;;;7.40;99.90;;;;;;2603059;54;20026;31
2023/06/03 03:07:27;;;;;;;6.95;1.27;;;7.40;99.90;;;;;;2602877;54;20026;31
2023/06/03 03:10:02;;;;;;;3.97;1.00;;;7.40;99.90;;;;;;2602892;54;20089;31
2023/06/03 03:12:41;;;;;;;2.17;1.08;;;7.40;99.90;;;;;;2603054;54;20888;31
2023/06/03 03:15:17;;;;;;;4.47;1.02;;;7.40;99.90;;;;;;2602927;54;20029;31
2023/06/03 03:17:53;;;;;;;4.22;0.88;;;7.30;99.90;;;;;;2602877;54;20092;31
2023/06/03 03:20:29;;;;;;;3.72;1.10;;;7.40;99.90;;;;;;2602002;54;20093;31
2023/06/03 03:23:06;;;;;;;3.90;1.20;;;7.40;99.90;;;;;;2603674;54;20872;31
2023/06/03 03:25:42;;;;;;;5.25;1.02;;;7.40;99.90;;;;;;2603774;54;19935;31
2023/06/03 03:28:20;;;;;;;4.55;1.30;;;7.50;99.90;;;;;;2603629;54;20029;31
2023/06/03 03:30:57;;;;;;;2.10;0.80;;;7.60;99.90;;;;;;2603734;54;19943;31
2023/06/03 03:33:34;;;;;;;4.73;1.23;;;7.80;99.90;;;;;;2603884;54;20859;31
2023/06/03 03:36:20;;;;;;;4.40;1.25;;;7.90;99.90;;;;;;2603997;54;20022;31
2023/06/03 03:39:02;;;;;;;4.25;1.55;;;8.10;99.90;;;;;;2621983;46;20116;31
2023/06/03 03:41:41;;;;;;;4.83;1.70;;;8.30;99.90;;;;;;2622224;46;20562;31
2023/06/03 03:44:20;;;;;;;4.55;1.77;;;8.50;99.90;;;;;;2603585;54;20999;31
2023/06/03 03:46:58;;;;;;;7.13;2.07;;;8.70;99.90;;;;;;2603831;54;20057;31
2023/06/03 03:49:34;;;;;;;5.53;1.23;;;8.80;99.90;;;;;;2603793;54;20027;31
2023/06/03 03:52:14;;;;;;;5.90;1.40;;;9.00;99.90;;;;;;2603712;54;20085;31
2023/06/03 03:54:57;;;;;;;5.50;0.90;;;9.20;99.90;;;;;;2622000;46;20077;31
2023/06/03 03:57:34;;;;;;;3.40;1.50;;;9.30;99.90;;;;;;2702141;39;20517;31
2023/06/03 04:00:17;;;;;;;5.93;1.50;;;9.50;99.90;;;;;;2622401;46;20026;31
2023/06/03 04:02:53;;;;;;;3.60;1.35;;;9.70;99.90;;;;;;2622357;46;20026;31
2023/06/03 04:05:29;;;;;;;3.47;1.57;;;9.80;99.90;;;;;;2603754;54;20030;31
2023/06/03 04:08:05;;;;;;;2.10;0.98;;;10.00;99.90;;;;;;2603790;54;20873;31
2023/06/03 04:10:41;;;;;;;5.13;1.83;;;10.10;99.90;;;;;;2603793;54;20473;31
2023/06/03 04:13:16;;;;;;;4.05;1.30;;;10.30;99.90;;;;;;2603903;54;20026;31
2023/06/03 04:15:54;;;;;;;3.25;1.25;;;10.50;99.90;;;;;;2603475;54;20899;31
2023/06/03 04:18:33;;;;;;;4.60;1.10;;;10.60;99.90;;;;;;2621790;46;20045;31
2023/06/03 04:21:12;;;;;;;2.60;1.20;;;10.80;99.90;;;;;;2603307;54;20026;31
2023/06/03 04:23:48;;;;;;;5.03;1.40;;;10.90;99.90;;;;;;2603568;54;20979;31
2023/06/03 04:26:23;;;;;;;3.43;1.17;;;11.10;99.90;;;;;;2603724;54;20027;31
2023/06/03 04:29:04;;;;;;;4.30;1.30;;;11.30;99.90;;;;;;2603558;54;20038;31
2023/06/03 04:31:43;;;;;;;4.38;1.38;;;11.50;99.90;;;;;;2603453;54;20056;31
2023/06/03 04:34:20;;;;;;;2.85;1.15;;;11.60;99.90;;;;;;2603324;54;19993;31
2023/06/03 04:36:57;;;;;;;3.30;1.00;;;11.80;99.90;;;;;;2603719;54;20029;31
2023/06/03 04:39:33;;;;;;;1.88;0.82;;;12.10;99.90;;;;;;2603404;54;20034;31
2023/06/03 04:42:10;;;;;;;3.33;1.20;;;12.30;99.90;;;;;;2603318;54;20104;31
2023/06/03 04:44:45;;;;;;;2.67;1.05;;;12.40;99.90;;;;;;2603346;54;20573;31
2023/06/03 04:47:28;;;;;;;4.50;1.23;;;12.50;99.90;;;;;;2603305;54;20989;31
2023/06/03 04:50:05;;;;;;;4.15;1.10;;;12.70;99.90;;;;;;2701860;39;20520;31
2023/06/03 04:52:40;;;;;;;5.25;1.23;;;12.80;99.90;;;;;;2602541;54;20569;31
2023/06/03 04:55:19;;;;;;;4.47;0.93;;;13.00;99.90;;;;;;2603389;54;20053;31
2023/06/03 04:58:00;;;;;;;;;;;13.10;99.90;;;;;;2621911;46;20037;31
2023/06/03 05:00:40;;;;;;;2.95;0.82;;;13.20;99.90;;;;;;2603394;54;19976;31
2023/06/03 05:03:22;;;;;;;4.25;1.30;;;13.40;99.90;;;;;;2602563;54;20030;31
2023/06/03 05:06:04;;;;;;;2.67;1.10;;;13.50;99.90;;;;;;2603385;54;20870;31
2023/06/03 05:08:40;;;;;;;2.72;1.00;;;13.60;99.90;;;;;;2621806;46;20541;31
2023/06/03 05:11:20;;;;;;;5.07;1.23;;;13.70;99.90;;;;;;2701718;39;20505;31
2023/06/03 05:13:57;;;;;;;3.63;1.73;;;13.80;99.90;;;;;;2603570;54;20030;31
2023/06/03 05:16:34;;;;;;;4.47;1.23;;;13.90;99.90;;;;;;2603537;54;20886;31
2023/06/03 05:19:12;;;;;;;;;;;14.10;99.90;;;;;;2603558;54;20065;31
2023/06/03 05:21:49;;;;;;;4.75;1.10;;;14.30;99.90;;;;;;2603598;54;20520;31
2023/06/03 05:24:24;;;;;;;2.45;0.80;;;14.50;99.90;;;;;;2621913;46;20022;31
2023/06/03 05:27:00;;;;;;;3.90;1.08;;;14.70;99.90;;;;;;2603432;54;20541;31
2023/06/03 05:29:36;;;;;;;3.65;0.98;;;14.90;99.90;;;;;;2701646;39;20481;31
2023/06/03 05:32:12;;;;;;;2.75;0.70;;;14.90;99.90;;;;;;2621977;46;20885;31
2023/06/03 05:34:51;;;;;;;2.55;0.85;;;15.10;99.90;;;;;;2701658;39;20482;31
2023/06/03 05:37:28;;;;;;;5.35;1.17;;;15.30;99.90;;;;;;2603360;54;20789;31
2023/06/03 05:40:03;;;;;;;2.60;0.80;;;15.50;99.90;;;;;;2603122;54;20955;31
2023/06/03 05:42:42;;;;;;;4.03;1.00;;;15.70;99.90;;;;;;2603411;54;20031;31
2023/06/03 05:45:18;;;;;;;6.33;1.07;;;15.80;99.90;;;;;;2603258;54;20026;31
2023/06/03 05:47:54;;;;;;;3.43;1.17;;;15.90;99.90;;;;;;2603225;54;20997;31
2023/06/03 05:50:33;;;;;;;4.25;0.80;;;15.90;99.90;;;;;;2720087;39;20807;31
2023/06/03 05:53:14;;;;;;;2.72;0.88;;;16.00;99.90;;;;;;2603373;54;20873;31
2023/06/03 05:55:49;;;;;;;4.70;1.10;;;16.20;99.90;;;;;;2701973;39;21039;31
2023/06/03 05:58:30;;;;;;;2.72;0.82;;;16.50;99.90;;;;;;2621488;46;20539;31
2023/06/03 06:01:13;;;;;;;1.75;0.60;;;16.70;98.70;;;;;;2603133;54;20026;31
2023/06/03 06:03:50;;;;;;;3.60;0.82;;;16.70;98.40;;;;;;2621625;46;20023;31
2023/06/03 06:06:28;;;;;;;2.55;0.80;;;16.80;98.00;;;;;;2621494;46;20878;31
2023/06/03 06:09:04;;;;;;;7.00;0.93;;;16.80;97.80;;;;;;2603114;54;20881;31
2023/06/03 06:11:40;;;;;;;1.85;0.63;;;17.00;97.70;;;;;;2621707;46;20840;31
2023/06/03 06:14:15;;;;;;;2.70;0.93;;;17.20;97.20;;;;;;2603203;54;20026;31
2023/06/03 06:16:52;;;;;;;4.45;1.85;;;17.40;96.90;;;;;;2621648;47;20029;31
2023/06/03 06:19:30;;;;;;;4.68;0.82;;;17.60;96.80;;;;;;2603062;54;20027;31
2023/06/03 06:22:09;;;;;;;4.25;0.88;;;17.70;96.10;;;;;;2603183;54;20604;31
2023/06/03 06:24:44;;;;;;;3.20;0.70;;;17.90;95.40;;;;;;2602934;54;20089;31
2023/06/03 06:27:22;;;;;;;2.55;0.60;;;18.00;94.50;;;;;;2621422;47;20027;31
2023/06/03 06:29:58;;;;;;;1.40;0.50;;;18.20;94.40;;;;;;2602924;54;20026;31
2023/06/03 06:32:38;;;;;;;1.92;0.90;;;18.30;93.70;;;;;;2603188;54;20841;31
2023/06/03 06:35:14;;;;;;;3.05;0.65;;;18.40;93.10;;;;;;2603012;54;20026;31
2023/06/03 06:37:53;;;;;;;2.63;0.65;;;18.30;92.80;;;;;;2602877;54;20033;31
2023/06/03 06:40:32;;;;;;;3.15;0.52;;;18.50;93.30;;;;;;2621836;47;20045;31
2023/06/03 06:43:07;;;;;;;5.20;0.80;;;18.70;92.20;;;;;;2701289;39;20493;31
2023/06/03 06:45:49;;;;;;;1.80;0.73;;;18.70;92.80;;;;;;2603047;54;20029;31
2023/06/03 06:48:24;;;;;;;7.30;1.00;;;18.90;92.10;;;;;;2621501;47;20027;31
2023/06/03 06:51:07;;;;;;;1.97;0.80;;;19.10;92.50;;;;;;2602863;54;20081;31
2023/06/03 06:53:48;;;;;;;2.00;0.60;;;19.30;91.40;;;;;;2602909;54;20050;31
2023/06/03 06:56:25;;;;;;;2.15;0.82;;;19.50;89.80;;;;;;2621692;47;20022;31
2023/06/03 06:59:05;;;;;;;2.33;0.80;;;19.40;86.20;;;;;;2603541;54;20034;31
2023/06/03 07:01:44;;;;;;;4.32;0.73;;;19.40;84.50;;;;;;2720942;39;20450;31
2023/06/03 07:04:21;;;;;;;2.95;0.60;;;19.30;83.50;;;;;;2603724;54;20720;31
2023/06/03 07:06:57;;;;;;;2.45;0.65;;;19.50;84.90;;;;;;2603750;54;20859;31
2023/06/03 07:09:36;;;;;;;3.53;0.63;;;19.60;83.90;;;;;;2603478;54;20026;31
2023/06/03 07:12:15;;;;;;;1.17;0.50;;;19.80;82.20;;;;;;2603396;54;20033;31
2023/06/03 07:14:52;;;;;;;2.13;0.60;;;19.80;80.90;;;;;;2603817;54;20868;31
2023/06/03 07:17:31;;;;;;;3.00;0.88;;;19.90;80.60;;;;;;2702350;39;20496;31
2023/06/03 07:20:09;;;;;;;2.58;0.75;;;20.00;81.60;;;;;;2603650;54;20882;31
2023/06/03 07:22:46;;;;;;;0.70;0.40;;;20.20;79.30;;;;;;2603628;54;20778;31
2023/06/03 07:25:33;;;;;;;7.53;0.50;;;20.40;76.10;;;;;;2603678;54;20023;31
2023/06/03 07:28:11;;;;;;;0.50;0.10;;;20.40;73.50;;;;;;2603777;54;20027;31
2023/06/03 07:30:47;;;;;;;0.77;0.25;;;20.40;63.80;;;;;;2603706;54;20128;31
2023/06/03 07:33:27;;;;;;;1.52;0.60;;;20.40;66.90;;;;;;2603560;54;20841;31
2023/06/03 07:36:06;;;;;;;0.60;0.28;;;20.20;69.70;;;;;;2603560;54;20938;31
2023/06/03 07:39:02;;;;;;;2.77;0.30;;;20.30;69.60;;;;;;2603813;54;20026;31
2023/06/03 07:41:50;;;;;;;2.00;0.30;;;20.20;69.10;;;;;;2603771;54;20030;31
2023/06/03 07:44:50;;;;;;;2.03;0.47;;;20.30;69.10;;;;;;2603711;54;20030;31
2023/06/03 07:47:25;;;;;;;1.53;0.50;;;20.40;69.30;;;;;;2622104;46;20026;31
2023/06/03 07:50:02;;;;;;;2.80;0.50;;;20.50;71.30;;;;;;2603099;54;20250;31
2023/06/03 07:52:39;;;;;;;1.70;0.47;;;20.50;69.20;;;;;;2621815;46;20029;31
2023/06/03 07:55:15;;;;;;;3.50;0.80;;;20.70;70.70;;;;;;2603653;54;20038;31
2023/06/03 07:57:53;;;;;;;2.20;0.60;;;20.80;69.10;;;;;;2621987;46;20026;31
2023/06/03 08:00:28;;;;;;;2.13;0.40;;;20.80;68.90;;;;;;2603800;54;20026;31
2023/06/03 08:03:05;;;;;;;3.05;0.70;;;20.90;68.80;;;;;;2603869;54;20882;31
2023/06/03 08:05:43;;;;;;;2.90;0.43;;;21.00;67.90;;;;;;2603561;54;20033;31
2023/06/03 08:08:18;;;;;;;3.28;0.50;;;21.20;68.90;;;;;;2603435;54;20084;31
2023/06/03 08:10:53;;;;;;;2.33;0.70;;;21.20;66.80;;;;;;2622014;46;20026;31
2023/06/03 08:13:31;;;;;;;4.65;0.98;;;21.40;66.80;;;;;;2618955;46;22520;31
2023/06/03 08:16:07;;;;;;;2.47;0.95;;;21.70;68.80;;;;;;2602668;54;20779;31
2023/06/03 08:18:47;;;;;;;5.22;1.13;;;21.80;67.00;;;;;;2616258;46;20034;31
2023/06/03 08:21:24;;;;;;;2.25;0.55;;;21.70;67.30;;;;;;2603615;54;20050;31
2023/06/03 08:23:59;;;;;;;4.60;0.50;;;21.60;66.30;;;;;;2603617;54;20023;31
2023/06/03 08:26:36;;;;;;;;;;;21.50;65.10;;;;;;2603478;54;20076;31
2023/06/03 08:29:15;;;;;;;1.45;0.40;;;21.60;63.10;;;;;;2603028;54;20021;31
2023/06/03 08:31:52;;;;;;;3.60;0.50;;;21.60;63.80;;;;;;2603508;54;20064;31
2023/06/03 08:34:28;;;;;;;1.73;0.50;;;21.60;64.30;;;;;;2603707;54;20026;31
2023/06/03 08:37:06;;;;;;;0.90;0.45;;;21.60;64.50;;;;;;2603412;54;21271;31
2023/06/03 08:39:42;;;;;;;2.10;0.40;;;21.70;64.50;;;;;;2602795;54;20876;31
2023/06/03 08:42:16;;;;;;;3.63;0.47;;;21.80;63.90;;;;;;2602634;54;21150;31
2023/06/03 08:45:02;;;;;;;7.22;0.60;;;21.90;64.60;;;;;;2603368;54;20927;31
2023/06/03 08:47:37;;;;;;;2.28;0.43;;;21.80;63.60;;;;;;2603355;54;20955;31
2023/06/03 08:50:19;;;;;;;11.27;0.88;;;21.70;62.10;;;;;;2609066;46;20755;31
2023/06/03 08:52:55;;;;;;;0.90;0.40;;;21.80;59.90;;;;;;2602641;54;20030;31
2023/06/03 08:55:31;;;;;;;1.60;0.40;;;21.90;61.30;;;;;;2621776;46;20038;31
2023/06/03 08:58:09;;;;;;;2.77;0.40;;;22.10;57.70;;;;;;2621677;46;20096;31
2023/06/03 09:00:48;;;;;;;3.63;1.37;;;22.00;58.00;;;;;;2602769;54;20050;31
2023/06/03 09:03:23;;;;;;;0.70;0.20;;;22.00;57.80;;;;;;2622109;46;21032;31
2023/06/03 09:06:03;;;;;;;5.00;0.40;;;22.10;57.30;;;;;;2603317;54;20037;31
2023/06/03 09:08:40;;;;;;;2.05;0.30;;;22.20;57.20;;;;;;2603351;54;20802;31
2023/06/03 09:11:14;;;;;;;1.85;0.52;;;22.10;58.00;;;;;;2603277;54;20031;31
2023/06/03 09:13:50;;;;;;;1.63;0.30;;;22.30;58.00;;;;;;2603586;54;20026;31
2023/06/03 09:16:28;;;;;;;1.40;0.50;;;22.30;57.80;;;;;;2603290;54;20927;31
2023/06/03 09:19:06;;;;;;;0.68;0.20;;;22.20;59.40;;;;;;2621508;46;20031;31
2023/06/03 09:21:43;;;;;;;0.55;0.30;;;22.30;58.30;;;;;;2603163;54;20061;31
2023/06/03 09:24:21;;;;;;;1.42;0.50;;;22.30;58.10;;;;;;2621953;46;20804;31
2023/06/03 09:26:55;;;;;;;1.50;0.47;;;22.30;57.80;;;;;;2603462;54;20036;31
2023/06/03 09:29:33;;;;;;;2.40;0.40;;;22.10;56.60;;;;;;2621850;46;20030;31
2023/06/03 09:32:12;;;;;;;2.28;0.50;;;22.00;56.90;;;;;;2603289;54;20076;31
2023/06/03 09:34:48;;;;;;;3.67;0.40;;;22.00;57.60;;;;;;2603149;54;20030;31
2023/06/03 09:37:25;;;;;;;1.23;0.40;;;21.90;57.00;;;;;;2603352;54;20022;31
2023/06/03 09:40:09;;;;;;;1.42;0.40;;;22.00;57.70;;;;;;2603317;54;20030;31
2023/06/03 09:42:45;;;;;;;3.20;0.45;;;22.20;59.00;;;;;;2603280;54;20030;31
2023/06/03 09:45:31;;;;;;;1.00;0.40;;;22.10;58.30;;;;;;2603208;54;20037;31
2023/06/03 09:48:09;;;;;;;2.40;1.25;;;22.30;57.00;;;;;;2603381;54;20031;31
2023/06/03 09:50:50;;;;;;;1.58;0.50;;;22.20;57.80;;;;;;2603418;54;20089;31
2023/06/03 09:53:25;;;;;;;4.53;0.57;;;22.20;57.70;;;;;;2621288;46;20729;31
2023/06/03 09:56:01;;;;;;;1.93;0.60;;;22.30;58.90;;;;;;2603328;54;20875;31
2023/06/03 09:58:37;;;;;;;3.45;0.60;;;22.40;58.50;;;;;;2603237;54;20923;31
2023/06/03 10:01:12;;;;;;;2.60;0.40;;;22.40;57.70;;;;;;2603603;54;20026;31
2023/06/03 10:04:05;;;;;;;1.65;0.50;;;22.20;56.90;;;;;;2603369;54;20897;31
2023/06/03 10:06:40;;;;;;;2.22;0.50;;;22.00;58.30;;;;;;2602831;54;20776;31
2023/06/03 10:09:25;;;;;;;2.90;0.40;;;22.10;58.10;;;;;;2603344;54;20034;31
2023/06/03 10:12:02;;;;;;;5.80;0.40;;;21.90;57.80;;;;;;2603325;54;20023;31
2023/06/03 10:14:37;;;;;;;15.68;1.13;;;22.00;58.50;;;;;;2621596;46;20023;31
2023/06/03 10:17:14;;;;;;;1.55;0.60;;;22.10;58.70;;;;;;2602919;54;20869;31
2023/06/03 10:19:57;;;;;;;1.03;0.50;;;22.20;59.80;;;;;;2603069;54;20030;31
2023/06/03 10:22:33;;;;;;;2.07;0.50;;;22.20;60.40;;;;;;2603307;54;19945;31
2023/06/03 10:25:09;;;;;;;;;;;22.10;58.00;;;;;;2621735;47;20031;31
2023/06/03 10:27:45;;;;;;;1.55;0.90;;;22.10;58.60;;;;;;2603295;54;19934;31
2023/06/03 10:30:23;;;;;;;4.13;0.57;;;22.10;57.80;;;;;;2603351;54;20031;31
2023/06/03 10:33:03;;;;;;;7.00;0.70;;;22.10;57.10;;;;;;2603107;54;20046;31
2023/06/03 10:35:41;;;;;;;2.13;0.50;;;22.00;57.10;;;;;;2603919;54;20101;31
2023/06/03 10:38:16;;;;;;;2.55;0.60;;;21.80;56.90;;;;;;2603112;54;22515;31
2023/06/03 10:40:53;;;;;;;2.67;0.50;;;21.90;57.90;;;;;;2603866;54;20022;31
2023/06/03 10:43:29;;;;;;;3.57;0.50;;;21.80;58.60;;;;;;2603805;54;20251;31
2023/06/03 10:46:05;;;;;;;4.00;0.68;;;21.60;58.20;;;;;;2603893;54;20908;31
2023/06/03 10:48:42;;;;;;;3.35;0.70;;;21.50;57.90;;;;;;2603964;54;20026;31
2023/06/03 10:51:31;;;;;;;0.85;0.40;;;21.50;57.50;;;;;;2615492;46;25049;31
2023/06/03 10:54:18;;;;;;;1.58;0.45;;;21.40;59.10;;;;;;2603823;54;20026;31
2023/06/03 10:56:56;;;;;;;2.22;0.60;;;21.40;58.30;;;;;;2603742;54;20915;31
2023/06/03 10:59:32;;;;;;;1.80;0.50;;;21.30;59.20;;;;;;2622419;46;20022;31
2023/06/03 11:02:08;;;;;;;2.63;0.52;;;21.20;59.70;;;;;;2622275;46;20245;31
2023/06/03 11:04:44;;;;;;;1.40;0.60;;;21.30;61.20;;;;;;2603670;54;20037;31
2023/06/03 11:07:49;;;;;;;3.00;0.38;;;21.30;60.10;;;;;;2603689;54;20026;31
2023/06/03 11:10:46;;;;;;;3.25;0.50;;;21.30;59.20;;;;;;2603575;54;20052;31
2023/06/03 11:13:45;;;;;;;4.57;0.30;;;21.20;59.70;;;;;;2603606;54;20933;31
2023/06/03 11:16:24;;;;;;;2.00;0.70;;;21.00;57.80;;;;;;2621965;46;20038;31
2023/06/03 11:19:26;;;;;;;3.40;0.40;;;20.90;58.70;;;;;;2622277;46;20932;31
2023/06/03 11:22:04;;;;;;;2.30;0.50;;;20.90;59.00;;;;;;2603861;54;20093;31
2023/06/03 11:24:39;;;;;;;1.75;0.47;;;21.00;59.10;;;;;;2603635;54;20852;31
2023/06/03 11:27:26;;;;;;;4.78;0.30;;;21.00;58.20;;;;;;2603017;54;20022;31
2023/06/03 11:30:05;;;;;;;4.43;0.50;;;21.00;56.00;;;;;;2603721;54;20029;31
2023/06/03 11:32:41;;;;;;;1.43;0.47;;;21.00;56.60;;;;;;2603873;54;21861;31
2023/06/03 11:35:30;;;;;;;1.80;0.50;;;21.00;56.80;;;;;;2603796;54;20030;31
2023/06/03 11:38:06;;;;;;;1.80;0.50;;;20.90;58.00;;;;;;2603821;54;20026;31
2023/06/03 11:40:48;;;;;;;2.05;0.40;;;20.90;58.30;;;;;;2603688;54;20250;31
2023/06/03 11:43:27;;;;;;;1.38;0.52;;;21.00;58.00;;;;;;2621627;46;21533;31
2023/06/03 11:46:08;;;;;;;1.60;0.50;;;20.90;58.80;;;;;;2622172;46;20026;31
2023/06/03 11:48:44;;;;;;;1.90;0.77;;;20.90;58.50;;;;;;2603638;54;20023;31
2023/06/03 11:51:21;;;;;;;1.90;0.40;;;21.00;59.10;;;;;;2622262;46;20029;31
2023/06/03 11:53:57;;;;;;;3.75;0.57;;;21.00;58.30;;;;;;2603492;54;20031;31
2023/06/03 11:56:38;;;;;;;2.60;0.65;;;21.00;60.00;;;;;;2621924;46;20030;31
2023/06/03 11:59:23;;;;;;;1.97;0.43;;;21.00;59.10;;;;;;2622134;46;20053;31
2023/06/03 12:02:00;;;;;;;1.52;0.40;;;20.90;57.70;;;;;;2773811;31;20422;31
2023/06/03 12:04:36;;;;;;;3.45;0.50;;;21.00;58.80;;;;;;2603594;54;20763;31
2023/06/03 12:07:18;;;;;;;3.40;0.40;;;21.00;59.00;;;;;;2603771;54;20030;31
2023/06/03 12:10:00;;;;;;;1.00;0.50;;;21.00;58.30;;;;;;2603549;54;20928;31
2023/06/03 12:12:35;;;;;;;14.65;1.00;;;20.90;58.30;;;;;;2603671;54;20865;31
2023/06/03 12:15:24;;;;;;;4.97;0.47;;;20.80;57.90;;;;;;2603424;54;20027;31
2023/06/03 12:18:07;;;;;;;2.50;0.50;;;20.90;57.40;;;;;;2603555;54;20238;31
2023/06/03 12:20:44;;;;;;;2.92;0.63;;;20.90;60.40;;;;;;2603727;54;20096;31
2023/06/03 12:23:32;;;;;;;2.07;0.67;;;21.00;60.50;;;;;;2603624;54;20031;31
2023/06/03 12:26:08;;;;;;;1.83;0.70;;;21.00;60.10;;;;;;2603405;54;20100;31
2023/06/03 12:28:46;;;;;;;2.90;0.73;;;21.00;59.60;;;;;;2603561;54;20736;31
2023/06/03 12:31:20;;;;;;;5.00;0.90;;;21.00;58.80;;;;;;2603678;54;20847;31
2023/06/03 12:34:00;;;;;;;2.17;0.52;;;21.00;58.50;;;;;;2603678;54;20051;31
2023/06/03 12:36:47;;;;;;;4.25;0.70;;;20.90;57.60;;;;;;2603697;54;20033;31
2023/06/03 12:39:23;;;;;;;3.03;0.50;;;20.90;58.30;;;;;;2622050;46;20031;31
2023/06/03 12:42:00;;;;;;;1.40;0.40;;;20.80;58.10;;;;;;2603482;54;20038;31
2023/06/03 12:44:44;;;;;;;2.55;0.85;;;20.70;57.30;;;;;;2603553;54;20023;31
2023/06/03 12:47:20;;;;;;;1.60;0.73;;;20.70;58.00;;;;;;2603305;54;20038;31
2023/06/03 12:50:13;;;;;;;2.95;0.50;;;20.60;57.70;;;;;;2621726;46;20033;31
2023/06/03 12:52:49;;;;;;;7.32;1.00;;;20.50;57.60;;;;;;2621749;46;20833;31
2023/06/03 12:55:28;;;;;;;3.47;0.40;;;20.50;57.50;;;;;;2602312;54;20042;31
2023/06/03 12:58:03;;;;;;;1.58;0.40;;;20.50;57.90;;;;;;2602523;54;20029;31
2023/06/03 13:00:40;;;;;;;0.73;0.40;;;20.50;60.80;;;;;;2603272;54;20038;31
2023/06/03 13:03:16;;;;;;;1.92;0.50;;;20.60;57.90;;;;;;2603486;54;20053;31
2023/06/03 13:05:54;;;;;;;;;;;20.60;57.60;;;;;;2603872;54;20027;31
2023/06/03 13:08:30;;;;;;;1.17;0.40;;;20.70;57.30;;;;;;2603526;54;19961;31
2023/06/03 13:11:08;;;;;;;1.70;0.45;;;20.60;57.10;;;;;;2621851;46;20089;31
2023/06/03 13:13:44;;;;;;;1.38;0.40;;;20.60;57.00;;;;;;2603389;54;20030;31
2023/06/03 13:16:22;;;;;;;2.85;0.55;;;20.50;58.50;;;;;;2622104;46;20103;31
2023/06/03 13:18:58;;;;;;;4.43;0.70;;;20.50;58.20;;;;;;2621252;46;20029;31
2023/06/03 13:21:36;;;;;;;1.30;0.45;;;20.50;58.30;;;;;;2603221;54;20758;31
2023/06/03 13:24:11;;;;;;;1.60;0.30;;;20.60;58.40;;;;;;2603602;54;20027;31
2023/06/03 13:26:47;;;;;;;2.65;1.83;;;20.60;59.00;;;;;;2603413;54;20899;31
2023/06/03 13:29:22;;;;;;;2.33;0.40;;;20.70;58.90;;;;;;2603426;54;20034;31
2023/06/03 13:31:58;;;;;;;0.90;0.40;;;20.70;58.10;;;;;;2602789;54;20086;31
2023/06/03 13:34:34;;;;;;;2.75;0.60;;;20.70;59.20;;;;;;2603417;54;20045;31
2023/06/03 13:37:15;;;;;;;1.47;0.40;;;20.60;58.90;;;;;;2602969;54;20871;31
2023/06/03 13:39:51;;;;;;;1.20;0.40;;;20.60;58.90;;;;;;2603410;54;20023;31
2023/06/03 13:42:27;;;;;;;4.23;0.63;;;20.50;58.80;;;;;;2603248;54;20778;31
2023/06/03 13:45:06;;;;;;;0.85;0.30;;;20.60;58.50;;;;;;2603262;54;20026;31
2023/06/03 13:47:43;;;;;;;1.27;0.40;;;20.60;58.60;;;;;;2602644;54;20033;31
2023/06/03 13:50:20;;;;;;;5.10;0.50;;;20.60;58.50;;;;;;2603163;54;20070;31
2023/06/03 13:53:08;;;;;;;1.67;0.30;;;20.60;58.10;;;;;;2603229;54;20085;31
2023/06/03 13:55:43;;;;;;;1.17;0.30;;;20.60;60.30;;;;;;2603173;54;20919;31
2023/06/03 13:58:20;;;;;;;2.40;0.60;;;20.60;58.50;;;;;;2621712;46;20108;31
2023/06/03 14:00:56;;;;;;;1.30;0.30;;;20.60;57.70;;;;;;2603300;54;20799;31